Terminal Aerodrome Forecast
Issued by NWS Missoula, MT

Home | Current Version | Previous Version | Text Only | Print | Product List | Glossary On
Versions: 1 2 3 4 5 6 7 8 9 10 11 12 13 14 15 16 17 18 19 20 21
000
FTUS45 KMSO 270724 AAB
TAFMSO
TAF AMD
KMSO 270724Z 2707/2806 12004KT 6SM -SHSN BR BKN009 OVC040
     FM271500 29006KT P6SM VCSH SCT020 OVC040
     FM272100 20005KT 6SM -SHSN BR BKN030 OVC050=

USA.gov is the U.S. government's official web portal to all federal, state and local government web resources and services.